createdAt,value
2023-01-17T00:00:48.022Z,25.67
2023-01-17T00:06:08.201Z,24.88
2023-01-17T00:11:09.777Z,24.90
2023-01-17T00:16:11.263Z,23.70
2023-01-17T00:21:31.313Z,23.52
2023-01-17T00:26:32.790Z,24.42
2023-01-17T00:31:34.214Z,25.02
2023-01-17T00:36:35.674Z,21.77
2023-01-17T00:41:37.084Z,22.48
2023-01-17T00:46:57.194Z,21.95
2023-01-17T00:52:16.999Z,22.77
2023-01-17T00:57:36.928Z,21.80
2023-01-17T01:02:57.622Z,21.45
2023-01-17T01:08:17.642Z,21.42
2023-01-17T01:13:41.404Z,22.92
2023-01-17T01:19:01.381Z,21.42
2023-01-17T01:24:21.342Z,21.80
2023-01-17T01:29:41.454Z,21.80
2023-01-17T01:34:42.873Z,20.15
2023-01-17T01:39:44.282Z,22.58
2023-01-17T01:44:48.572Z,21.45
2023-01-17T01:49:50.979Z,18.88
2023-01-17T01:54:58.821Z,17.85
2023-01-17T02:00:08.778Z,11.35
2023-01-17T02:05:12.509Z,7.75
2023-01-17T02:10:13.946Z,5.90
2023-01-17T02:15:15.455Z,5.60
2023-01-17T02:20:38.035Z,5.32
2023-01-17T02:26:14.541Z,5.40
2023-01-17T02:31:28.100Z,4.82
2023-01-17T02:36:36.239Z,4.78
2023-01-17T02:41:43.328Z,4.10
2023-01-17T02:46:49.692Z,5.00
2023-01-17T02:52:10.827Z,3.97
2023-01-17T02:57:42.637Z,4.38
2023-01-17T03:02:52.252Z,5.03
2023-01-17T03:07:54.944Z,4.60
2023-01-17T03:12:58.542Z,4.88
2023-01-17T03:18:04.707Z,5.00
2023-01-17T03:23:06.242Z,4.40
2023-01-17T03:28:07.662Z,4.10
2023-01-17T03:33:09.184Z,3.97
2023-01-17T03:38:10.618Z,3.70
2023-01-17T03:43:12.135Z,3.47
2023-01-17T03:48:13.650Z,4.00
2023-01-17T03:53:15.076Z,4.03
2023-01-17T03:58:16.519Z,5.13
2023-01-17T04:03:17.964Z,5.20
2023-01-17T04:08:19.613Z,6.47
2023-01-17T04:13:21.013Z,6.43
2023-01-17T04:18:23.824Z,6.50
2023-01-17T04:23:25.337Z,5.78
2023-01-17T04:28:26.877Z,5.93
2023-01-17T04:33:29.371Z,5.72
2023-01-17T04:38:30.791Z,5.30
2023-01-17T04:43:32.625Z,4.88
2023-01-17T04:48:34.043Z,4.35
2023-01-17T04:53:35.570Z,3.60
2023-01-17T04:58:38.197Z,3.38
2023-01-17T05:03:39.679Z,4.43
2023-01-17T05:08:41.524Z,3.20
2023-01-17T05:13:42.925Z,3.95
2023-01-17T05:18:44.338Z,3.83
2023-01-17T05:23:46.072Z,3.22
2023-01-17T05:28:47.504Z,3.28
2023-01-17T05:33:48.955Z,4.38
2023-01-17T05:38:50.425Z,2.70
2023-01-17T05:43:51.868Z,3.30
2023-01-17T05:48:53.279Z,2.88
2023-01-17T05:53:54.936Z,3.17
2023-01-17T05:58:56.347Z,2.92
2023-01-17T06:03:57.969Z,2.15
2023-01-17T06:08:59.418Z,2.08
2023-01-17T06:14:00.845Z,1.90
2023-01-17T06:19:02.413Z,2.58
2023-01-17T06:24:04.446Z,1.98
2023-01-17T06:29:05.925Z,1.90
2023-01-17T06:34:07.458Z,1.85
2023-01-17T06:39:10.223Z,1.95
2023-01-17T06:44:11.761Z,1.77
2023-01-17T06:49:13.218Z,1.63
2023-01-17T06:54:14.766Z,1.73
2023-01-17T06:59:16.179Z,2.30
2023-01-17T07:04:17.611Z,1.67
2023-01-17T07:09:19.013Z,2.15
2023-01-17T07:14:20.535Z,2.28
2023-01-17T07:19:22.277Z,1.92
2023-01-17T07:24:23.675Z,2.40
2023-01-17T07:29:25.254Z,2.30
2023-01-17T07:34:26.657Z,1.70
2023-01-17T07:39:28.067Z,1.70
2023-01-17T07:44:29.556Z,2.63
2023-01-17T07:49:31.072Z,1.90
2023-01-17T07:54:32.815Z,2.28
2023-01-17T07:59:34.594Z,2.40
2023-01-17T08:04:36.092Z,2.50
2023-01-17T08:09:37.524Z,2.58
2023-01-17T08:14:38.946Z,4.30
2023-01-17T08:19:40.602Z,4.93
2023-01-17T08:24:42.146Z,3.63
2023-01-17T08:29:47.096Z,3.22
2023-01-17T08:34:48.812Z,3.50
2023-01-17T08:39:50.357Z,3.22
2023-01-17T08:44:51.797Z,3.10
2023-01-17T08:49:53.681Z,2.92
2023-01-17T08:54:55.264Z,2.90
2023-01-17T08:59:56.661Z,2.47
2023-01-17T09:04:58.155Z,2.75
2023-01-17T09:09:59.552Z,2.10
2023-01-17T09:15:02.362Z,3.58
2023-01-17T09:20:04.080Z,2.90
2023-01-17T09:25:08.998Z,1.98
2023-01-17T09:30:11.033Z,2.35
2023-01-17T09:35:13.582Z,1.70
2023-01-17T09:40:19.480Z,1.38
2023-01-17T09:45:21.354Z,1.60
2023-01-17T09:50:27.072Z,1.80
2023-01-17T09:55:48.686Z,1.80
2023-01-17T10:01:06.807Z,1.60
2023-01-17T10:06:30.180Z,1.50
2023-01-17T10:11:49.583Z,1.30
2023-01-17T10:22:25.394Z,1.48
2023-01-17T10:32:46.427Z,1.45
2023-01-17T10:37:49.947Z,1.52
2023-01-17T10:43:19.423Z,1.38
2023-01-17T10:48:38.737Z,1.60
2023-01-17T11:03:56.182Z,1.80
2023-01-17T11:09:03.062Z,1.92
2023-01-17T11:14:14.210Z,2.13
2023-01-17T11:19:30.433Z,1.80
2023-01-17T11:24:34.558Z,1.88
2023-01-17T11:29:40.616Z,1.63
2023-01-17T11:34:42.125Z,1.98
2023-01-17T11:39:44.507Z,1.67
2023-01-17T11:44:46.071Z,1.90
2023-01-17T11:49:49.028Z,1.80
2023-01-17T11:54:53.986Z,1.88
2023-01-17T12:00:08.824Z,1.83
2023-01-17T12:05:23.564Z,1.80
2023-01-17T12:10:43.287Z,2.30
2023-01-17T12:16:31.740Z,1.80
2023-01-17T12:21:38.537Z,1.43
2023-01-17T12:27:06.179Z,1.58
2023-01-17T12:32:38.424Z,1.95
2023-01-17T12:37:43.975Z,1.60
2023-01-17T12:43:08.111Z,1.30
2023-01-17T12:48:16.591Z,1.42
2023-01-17T12:53:56.450Z,1.93
2023-01-17T12:59:35.096Z,1.77
2023-01-17T13:04:57.659Z,1.90
2023-01-17T13:10:20.164Z,1.67
2023-01-17T13:15:26.991Z,1.65
2023-01-17T13:20:49.166Z,1.65
2023-01-17T13:25:50.901Z,1.52
2023-01-17T13:31:07.876Z,2.10
2023-01-17T13:36:25.776Z,1.80
2023-01-17T13:41:45.094Z,2.30
2023-01-17T13:47:27.462Z,1.75
2023-01-17T13:52:33.209Z,2.28
2023-01-17T13:57:42.191Z,2.00
2023-01-17T14:02:43.852Z,1.50
2023-01-17T14:08:07.888Z,1.95
2023-01-17T14:13:44.653Z,1.40
2023-01-17T14:18:46.153Z,1.90
2023-01-17T14:23:50.287Z,1.60
2023-01-17T14:28:52.460Z,2.92
2023-01-17T14:33:54.264Z,2.38
2023-01-17T14:38:55.766Z,2.38
2023-01-17T14:43:59.545Z,1.90
2023-01-17T14:49:04.275Z,2.28
2023-01-17T14:54:21.131Z,2.10
2023-01-17T14:59:22.771Z,2.47
2023-01-17T15:04:27.341Z,2.30
2023-01-17T15:09:35.072Z,2.08
2023-01-17T15:14:39.909Z,2.58
2023-01-17T15:19:43.718Z,2.25
2023-01-17T15:24:46.921Z,2.10
2023-01-17T15:29:48.847Z,2.72
2023-01-17T15:34:51.521Z,2.50
2023-01-17T15:40:03.244Z,2.63
2023-01-17T15:45:07.597Z,3.05
2023-01-17T15:50:25.687Z,3.25
2023-01-17T15:55:35.525Z,3.50
2023-01-17T16:00:39.165Z,3.97
2023-01-17T16:05:44.069Z,4.30
2023-01-17T16:10:45.526Z,6.47
2023-01-17T16:15:47.140Z,5.28
2023-01-17T16:20:55.117Z,5.03
2023-01-17T16:25:56.625Z,4.93
2023-01-17T16:30:58.139Z,5.50
2023-01-17T16:35:59.659Z,6.80
2023-01-17T16:41:03.958Z,8.07
2023-01-17T16:46:05.934Z,5.82
2023-01-17T16:51:08.060Z,6.53
2023-01-17T16:56:13.635Z,7.70
2023-01-17T17:01:17.624Z,8.98
2023-01-17T17:06:19.126Z,8.90
2023-01-17T17:11:25.510Z,6.25
2023-01-17T17:16:32.770Z,12.43
2023-01-17T17:21:36.787Z,11.00
2023-01-17T17:26:39.261Z,6.40
2023-01-17T17:31:42.934Z,9.07
2023-01-17T17:36:44.520Z,10.80
2023-01-17T17:41:46.082Z,11.75
2023-01-17T17:46:49.343Z,19.27
2023-01-17T17:51:50.805Z,23.73
2023-01-17T17:56:52.211Z,21.85
2023-01-17T18:01:53.924Z,17.48
2023-01-17T18:06:57.281Z,15.38
2023-01-17T18:11:58.859Z,16.55
2023-01-17T18:17:00.358Z,16.40
2023-01-17T18:22:03.447Z,18.33
2023-01-17T18:27:05.417Z,21.85
2023-01-17T18:32:06.938Z,28.23
2023-01-17T18:37:08.398Z,24.83
2023-01-17T18:42:11.895Z,21.45
2023-01-17T18:47:13.435Z,21.15
2023-01-17T18:52:15.018Z,22.30
2023-01-17T18:57:16.482Z,23.23
2023-01-17T19:02:19.532Z,23.27
2023-01-17T19:07:21.668Z,24.02
2023-01-17T19:12:23.112Z,29.23
2023-01-17T19:17:24.522Z,26.63
2023-01-17T19:22:25.939Z,32.25
2023-01-17T19:27:27.449Z,29.45
2023-01-17T19:32:28.946Z,35.05
2023-01-17T19:37:30.670Z,35.42
2023-01-17T19:42:32.108Z,43.85
2023-01-17T19:47:34.021Z,55.38
2023-01-17T19:52:36.081Z,52.58
2023-01-17T19:57:37.551Z,71.63
2023-01-17T20:02:39.505Z,47.90
2023-01-17T20:07:40.956Z,40.20
2023-01-17T20:12:42.442Z,34.08
2023-01-17T20:17:44.167Z,29.38
2023-01-17T20:22:45.996Z,29.73
2023-01-17T20:27:47.404Z,29.45
2023-01-17T20:32:48.834Z,29.30
2023-01-17T20:37:53.431Z,28.40
2023-01-17T20:42:54.852Z,28.65
2023-01-17T20:47:56.519Z,27.92
2023-01-17T20:52:58.166Z,27.77
2023-01-17T20:57:59.779Z,27.52
2023-01-17T21:03:01.650Z,27.33
2023-01-17T21:08:03.918Z,23.05
2023-01-17T21:13:05.327Z,23.73
2023-01-17T21:18:06.930Z,24.58
2023-01-17T21:23:10.130Z,24.58
2023-01-17T21:28:11.612Z,20.13
2023-01-17T21:33:13.230Z,18.58
2023-01-17T21:38:14.921Z,16.55
2023-01-17T21:43:16.365Z,18.10
2023-01-17T21:48:17.794Z,18.05
2023-01-17T21:53:19.272Z,19.20
2023-01-17T21:58:39.084Z,20.58
2023-01-17T22:03:40.488Z,21.70
2023-01-17T22:08:41.945Z,21.30
2023-01-17T22:13:44.631Z,19.17
2023-01-17T22:18:46.867Z,18.10
2023-01-17T22:23:51.604Z,19.02
2023-01-17T22:28:54.074Z,22.67
2023-01-17T22:34:01.704Z,22.23
2023-01-17T22:39:03.241Z,22.42
2023-01-17T22:44:08.479Z,19.60
2023-01-17T22:49:13.416Z,21.05
2023-01-17T22:54:14.921Z,18.58
2023-01-17T22:59:16.421Z,18.23
2023-01-17T23:04:17.886Z,17.98
2023-01-17T23:09:19.311Z,17.70
2023-01-17T23:14:23.432Z,18.52
2023-01-17T23:19:26.998Z,16.65
2023-01-17T23:24:28.494Z,25.17
2023-01-17T23:29:29.896Z,35.08
2023-01-17T23:34:31.329Z,31.75
2023-01-17T23:39:32.762Z,33.97
2023-01-17T23:44:34.167Z,27.95
2023-01-17T23:49:35.577Z,26.30
2023-01-17T23:54:38.669Z,22.90
2023-01-17T23:59:40.095Z,23.40
